sensor_id;sensor_type;location;lat;lon;timestamp;P1;durP1;ratioP1;P2;durP2;ratioP2
22425;SDS011;11380;50.822;15.790;2022-09-03T00:05:13;47.58;;;43.98;;
22425;SDS011;11380;50.822;15.790;2022-09-03T00:15:59;48.10;;;44.37;;
22425;SDS011;11380;50.822;15.790;2022-09-03T00:21:11;49.13;;;44.93;;
22425;SDS011;11380;50.822;15.790;2022-09-03T00:26:24;48.07;;;44.47;;
22425;SDS011;11380;50.822;15.790;2022-09-03T00:31:32;48.07;;;44.47;;
22425;SDS011;11380;50.822;15.790;2022-09-03T00:36:43;48.13;;;44.13;;
22425;SDS011;11380;50.822;15.790;2022-09-03T00:47:01;48.80;;;44.83;;
22425;SDS011;11380;50.822;15.790;2022-09-03T00:57:51;49.60;;;45.03;;
22425;SDS011;11380;50.822;15.790;2022-09-03T01:19:37;48.00;;;44.45;;
22425;SDS011;11380;50.822;15.790;2022-09-03T01:24:53;47.77;;;44.23;;
22425;SDS011;11380;50.822;15.790;2022-09-03T01:30:04;47.40;;;43.90;;
22425;SDS011;11380;50.822;15.790;2022-09-03T01:40:33;46.93;;;43.33;;
22425;SDS011;11380;50.822;15.790;2022-09-03T01:45:40;47.47;;;43.97;;
22425;SDS011;11380;50.822;15.790;2022-09-03T01:51:15;46.90;;;43.40;;
22425;SDS011;11380;50.822;15.790;2022-09-03T02:07:10;46.50;;;43.08;;
22425;SDS011;11380;50.822;15.790;2022-09-03T02:12:15;46.57;;;43.17;;
22425;SDS011;11380;50.822;15.790;2022-09-03T02:17:22;46.93;;;43.50;;
22425;SDS011;11380;50.822;15.790;2022-09-03T02:22:28;46.60;;;43.10;;
22425;SDS011;11380;50.822;15.790;2022-09-03T02:27:34;45.77;;;42.50;;
22425;SDS011;11380;50.822;15.790;2022-09-03T02:32:41;46.77;;;43.45;;
22425;SDS011;11380;50.822;15.790;2022-09-03T02:37:50;46.10;;;42.80;;
22425;SDS011;11380;50.822;15.790;2022-09-03T02:42:55;46.00;;;42.60;;
22425;SDS011;11380;50.822;15.790;2022-09-03T02:48:01;46.07;;;42.47;;
22425;SDS011;11380;50.822;15.790;2022-09-03T02:53:07;45.87;;;42.57;;
22425;SDS011;11380;50.822;15.790;2022-09-03T02:58:12;45.80;;;42.60;;
22425;SDS011;11380;50.822;15.790;2022-09-03T03:03:17;46.73;;;43.27;;
22425;SDS011;11380;50.822;15.790;2022-09-03T03:08:26;46.00;;;42.63;;
22425;SDS011;11380;50.822;15.790;2022-09-03T03:13:33;46.23;;;42.85;;
22425;SDS011;11380;50.822;15.790;2022-09-03T03:18:38;45.37;;;42.13;;
22425;SDS011;11380;50.822;15.790;2022-09-03T03:23:44;46.03;;;42.73;;
22425;SDS011;11380;50.822;15.790;2022-09-03T03:28:54;45.73;;;42.33;;
22425;SDS011;11380;50.822;15.790;2022-09-03T03:34:01;45.73;;;42.50;;
22425;SDS011;11380;50.822;15.790;2022-09-03T03:39:08;45.67;;;42.27;;
22425;SDS011;11380;50.822;15.790;2022-09-03T03:44:14;46.20;;;42.70;;
22425;SDS011;11380;50.822;15.790;2022-09-03T03:49:21;45.85;;;42.45;;
22425;SDS011;11380;50.822;15.790;2022-09-03T03:54:26;46.20;;;42.73;;
22425;SDS011;11380;50.822;15.790;2022-09-03T03:59:32;46.27;;;42.97;;
22425;SDS011;11380;50.822;15.790;2022-09-03T04:04:37;45.13;;;41.97;;
22425;SDS011;11380;50.822;15.790;2022-09-03T04:09:42;45.80;;;42.57;;
22425;SDS011;11380;50.822;15.790;2022-09-03T04:14:47;44.20;;;41.20;;
22425;SDS011;11380;50.822;15.790;2022-09-03T04:19:52;46.03;;;42.53;;
22425;SDS011;11380;50.822;15.790;2022-09-03T04:24:57;44.97;;;41.77;;
22425;SDS011;11380;50.822;15.790;2022-09-03T04:30:02;45.30;;;42.10;;
22425;SDS011;11380;50.822;15.790;2022-09-03T04:35:08;46.07;;;42.57;;
22425;SDS011;11380;50.822;15.790;2022-09-03T04:40:14;45.17;;;41.97;;
22425;SDS011;11380;50.822;15.790;2022-09-03T04:45:19;44.93;;;41.80;;
22425;SDS011;11380;50.822;15.790;2022-09-03T04:50:25;45.30;;;42.10;;
22425;SDS011;11380;50.822;15.790;2022-09-03T04:55:35;46.13;;;42.88;;
22425;SDS011;11380;50.822;15.790;2022-09-03T05:00:42;45.60;;;42.30;;
22425;SDS011;11380;50.822;15.790;2022-09-03T05:05:50;46.23;;;42.37;;
22425;SDS011;11380;50.822;15.790;2022-09-03T05:10:59;45.65;;;42.45;;
22425;SDS011;11380;50.822;15.790;2022-09-03T05:16:08;45.78;;;42.58;;
22425;SDS011;11380;50.822;15.790;2022-09-03T05:21:16;45.23;;;42.03;;
22425;SDS011;11380;50.822;15.790;2022-09-03T05:26:23;46.23;;;42.87;;
22425;SDS011;11380;50.822;15.790;2022-09-03T05:31:32;46.93;;;43.47;;
22425;SDS011;11380;50.822;15.790;2022-09-03T05:36:42;47.07;;;43.53;;
22425;SDS011;11380;50.822;15.790;2022-09-03T05:41:48;47.27;;;43.73;;
22425;SDS011;11380;50.822;15.790;2022-09-03T05:46:55;50.37;;;45.40;;
22425;SDS011;11380;50.822;15.790;2022-09-03T05:52:01;48.57;;;44.77;;
22425;SDS011;11380;50.822;15.790;2022-09-03T05:57:07;49.10;;;45.10;;
22425;SDS011;11380;50.822;15.790;2022-09-03T06:02:12;49.45;;;45.60;;
22425;SDS011;11380;50.822;15.790;2022-09-03T06:07:19;50.07;;;45.90;;
22425;SDS011;11380;50.822;15.790;2022-09-03T06:12:24;50.53;;;46.53;;
22425;SDS011;11380;50.822;15.790;2022-09-03T06:17:30;54.83;;;48.73;;
22425;SDS011;11380;50.822;15.790;2022-09-03T06:22:35;54.40;;;48.43;;
22425;SDS011;11380;50.822;15.790;2022-09-03T06:27:41;53.73;;;48.27;;
22425;SDS011;11380;50.822;15.790;2022-09-03T06:32:46;61.30;;;49.77;;
22425;SDS011;11380;50.822;15.790;2022-09-03T06:37:53;58.60;;;49.37;;
22425;SDS011;11380;50.822;15.790;2022-09-03T06:42:59;96.27;;;57.37;;
22425;SDS011;11380;50.822;15.790;2022-09-03T06:48:08;60.13;;;54.40;;
22425;SDS011;11380;50.822;15.790;2022-09-03T06:53:13;62.90;;;56.27;;
22425;SDS011;11380;50.822;15.790;2022-09-03T06:58:19;61.37;;;54.47;;
22425;SDS011;11380;50.822;15.790;2022-09-03T07:03:27;60.38;;;51.08;;
22425;SDS011;11380;50.822;15.790;2022-09-03T07:08:33;54.60;;;49.40;;
22425;SDS011;11380;50.822;15.790;2022-09-03T07:13:39;54.33;;;49.63;;
22425;SDS011;11380;50.822;15.790;2022-09-03T07:18:48;54.77;;;49.60;;
22425;SDS011;11380;50.822;15.790;2022-09-03T07:23:53;54.60;;;49.80;;
22425;SDS011;11380;50.822;15.790;2022-09-03T07:34:05;52.90;;;48.30;;
22425;SDS011;11380;50.822;15.790;2022-09-03T07:39:13;52.30;;;47.70;;
22425;SDS011;11380;50.822;15.790;2022-09-03T07:58:03;54.63;;;49.13;;
22425;SDS011;11380;50.822;15.790;2022-09-03T08:03:09;53.97;;;48.97;;
22425;SDS011;11380;50.822;15.790;2022-09-03T08:08:16;53.58;;;48.85;;
22425;SDS011;11380;50.822;15.790;2022-09-03T08:13:22;55.08;;;49.53;;
22425;SDS011;11380;50.822;15.790;2022-09-03T08:18:29;54.73;;;49.55;;
22425;SDS011;11380;50.822;15.790;2022-09-03T08:23:37;54.53;;;49.60;;
22425;SDS011;11380;50.822;15.790;2022-09-03T08:28:43;54.25;;;49.35;;
22425;SDS011;11380;50.822;15.790;2022-09-03T08:33:50;54.77;;;49.77;;
22425;SDS011;11380;50.822;15.790;2022-09-03T08:39:00;54.60;;;49.67;;
22425;SDS011;11380;50.822;15.790;2022-09-03T08:55:14;55.37;;;50.23;;
22425;SDS011;11380;50.822;15.790;2022-09-03T09:05:50;55.50;;;50.20;;
22425;SDS011;11380;50.822;15.790;2022-09-03T09:11:13;55.12;;;49.95;;
22425;SDS011;11380;50.822;15.790;2022-09-03T09:16:18;54.83;;;49.80;;
22425;SDS011;11380;50.822;15.790;2022-09-03T09:21:39;55.23;;;49.97;;
22425;SDS011;11380;50.822;15.790;2022-09-03T09:26:59;55.20;;;50.10;;
22425;SDS011;11380;50.822;15.790;2022-09-03T09:32:02;54.67;;;49.57;;
22425;SDS011;11380;50.822;15.790;2022-09-03T09:37:11;55.37;;;50.10;;
22425;SDS011;11380;50.822;15.790;2022-09-03T09:42:20;55.00;;;49.80;;
22425;SDS011;11380;50.822;15.790;2022-09-03T09:47:31;54.53;;;49.43;;
22425;SDS011;11380;50.822;15.790;2022-09-03T09:52:38;54.60;;;49.60;;
22425;SDS011;11380;50.822;15.790;2022-09-03T10:02:52;54.55;;;49.45;;
22425;SDS011;11380;50.822;15.790;2022-09-03T10:07:59;54.53;;;49.45;;
22425;SDS011;11380;50.822;15.790;2022-09-03T10:13:09;54.90;;;49.93;;
22425;SDS011;11380;50.822;15.790;2022-09-03T10:18:28;55.43;;;50.13;;
22425;SDS011;11380;50.822;15.790;2022-09-03T10:23:34;54.27;;;49.20;;
22425;SDS011;11380;50.822;15.790;2022-09-03T10:28:41;53.50;;;48.70;;
22425;SDS011;11380;50.822;15.790;2022-09-03T10:33:52;54.47;;;49.57;;
22425;SDS011;11380;50.822;15.790;2022-09-03T10:39:12;54.27;;;49.27;;
22425;SDS011;11380;50.822;15.790;2022-09-03T10:44:24;54.23;;;49.30;;
22425;SDS011;11380;50.822;15.790;2022-09-03T10:54:52;54.07;;;49.07;;
22425;SDS011;11380;50.822;15.790;2022-09-03T10:59:59;54.37;;;49.40;;
22425;SDS011;11380;50.822;15.790;2022-09-03T11:05:11;54.27;;;49.23;;
22425;SDS011;11380;50.822;15.790;2022-09-03T11:15:38;54.43;;;49.43;;
22425;SDS011;11380;50.822;15.790;2022-09-03T11:20:42;54.60;;;49.50;;
22425;SDS011;11380;50.822;15.790;2022-09-03T11:25:50;55.25;;;50.23;;
22425;SDS011;11380;50.822;15.790;2022-09-03T11:36:33;55.17;;;49.97;;
22425;SDS011;11380;50.822;15.790;2022-09-03T11:41:40;55.20;;;50.10;;
22425;SDS011;11380;50.822;15.790;2022-09-03T11:52:03;55.28;;;50.17;;
22425;SDS011;11380;50.822;15.790;2022-09-03T11:57:23;56.27;;;50.97;;
22425;SDS011;11380;50.822;15.790;2022-09-03T12:02:26;55.77;;;50.57;;
22425;SDS011;11380;50.822;15.790;2022-09-03T12:12:51;55.83;;;50.70;;
22425;SDS011;11380;50.822;15.790;2022-09-03T12:18:07;55.73;;;50.53;;
22425;SDS011;11380;50.822;15.790;2022-09-03T12:23:27;55.47;;;50.13;;
22425;SDS011;11380;50.822;15.790;2022-09-03T12:28:37;55.47;;;50.37;;
22425;SDS011;11380;50.822;15.790;2022-09-03T12:33:47;55.50;;;50.23;;
22425;SDS011;11380;50.822;15.790;2022-09-03T12:39:07;55.73;;;50.33;;
22425;SDS011;11380;50.822;15.790;2022-09-03T12:44:18;54.67;;;49.63;;
22425;SDS011;11380;50.822;15.790;2022-09-03T12:49:34;55.53;;;50.33;;
22425;SDS011;11380;50.822;15.790;2022-09-03T12:54:51;55.63;;;50.52;;
22425;SDS011;11380;50.822;15.790;2022-09-03T12:59:55;56.37;;;51.07;;
22425;SDS011;11380;50.822;15.790;2022-09-03T13:05:03;55.47;;;50.23;;
22425;SDS011;11380;50.822;15.790;2022-09-03T13:10:21;54.85;;;49.88;;
22425;SDS011;11380;50.822;15.790;2022-09-03T13:15:32;55.40;;;50.20;;
22425;SDS011;11380;50.822;15.790;2022-09-03T13:31:41;54.90;;;49.90;;
22425;SDS011;11380;50.822;15.790;2022-09-03T13:42:44;55.30;;;50.10;;
22425;SDS011;11380;50.822;15.790;2022-09-03T13:58:50;54.87;;;49.87;;
22425;SDS011;11380;50.822;15.790;2022-09-03T14:03:58;55.23;;;50.20;;
22425;SDS011;11380;50.822;15.790;2022-09-03T14:14:54;54.53;;;49.33;;
22425;SDS011;11380;50.822;15.790;2022-09-03T14:20:05;54.93;;;49.83;;
22425;SDS011;11380;50.822;15.790;2022-09-03T14:25:16;54.83;;;49.73;;
22425;SDS011;11380;50.822;15.790;2022-09-03T14:30:46;55.73;;;50.47;;
22425;SDS011;11380;50.822;15.790;2022-09-03T14:36:07;54.73;;;49.63;;
22425;SDS011;11380;50.822;15.790;2022-09-03T14:46:44;55.70;;;50.40;;
22425;SDS011;11380;50.822;15.790;2022-09-03T14:52:07;55.87;;;50.33;;
22425;SDS011;11380;50.822;15.790;2022-09-03T15:08:36;54.97;;;49.93;;
22425;SDS011;11380;50.822;15.790;2022-09-03T15:13:50;54.93;;;50.00;;
22425;SDS011;11380;50.822;15.790;2022-09-03T15:29:28;55.23;;;50.13;;
22425;SDS011;11380;50.822;15.790;2022-09-03T15:35:04;55.47;;;50.37;;
22425;SDS011;11380;50.822;15.790;2022-09-03T15:40:26;57.35;;;51.70;;
22425;SDS011;11380;50.822;15.790;2022-09-03T15:56:35;56.02;;;50.80;;
22425;SDS011;11380;50.822;15.790;2022-09-03T16:01:53;64.03;;;56.93;;
22425;SDS011;11380;50.822;15.790;2022-09-03T16:07:06;56.07;;;50.87;;
22425;SDS011;11380;50.822;15.790;2022-09-03T16:23:25;55.53;;;50.43;;
22425;SDS011;11380;50.822;15.790;2022-09-03T17:07:06;56.33;;;51.27;;
22425;SDS011;11380;50.822;15.790;2022-09-03T17:12:32;56.37;;;51.10;;
22425;SDS011;11380;50.822;15.790;2022-09-03T17:17:46;55.83;;;50.73;;
22425;SDS011;11380;50.822;15.790;2022-09-03T17:23:06;56.43;;;51.37;;
22425;SDS011;11380;50.822;15.790;2022-09-03T17:28:16;56.77;;;51.47;;
22425;SDS011;11380;50.822;15.790;2022-09-03T17:44:39;56.80;;;51.60;;
22425;SDS011;11380;50.822;15.790;2022-09-03T17:49:45;56.13;;;50.83;;
22425;SDS011;11380;50.822;15.790;2022-09-03T17:55:12;55.90;;;50.60;;
22425;SDS011;11380;50.822;15.790;2022-09-03T18:00:08;55.77;;;50.57;;
22425;SDS011;11380;50.822;15.790;2022-09-03T18:10:42;58.57;;;52.60;;
22425;SDS011;11380;50.822;15.790;2022-09-03T18:21:16;57.43;;;51.80;;
22425;SDS011;11380;50.822;15.790;2022-09-03T18:26:48;55.67;;;50.67;;
22425;SDS011;11380;50.822;15.790;2022-09-03T18:32:14;57.97;;;52.43;;
22425;SDS011;11380;50.822;15.790;2022-09-03T18:37:38;57.60;;;52.37;;
22425;SDS011;11380;50.822;15.790;2022-09-03T18:43:05;56.47;;;51.33;;
22425;SDS011;11380;50.822;15.790;2022-09-03T19:05:24;55.53;;;50.63;;
22425;SDS011;11380;50.822;15.790;2022-09-03T19:10:55;56.17;;;50.73;;
22425;SDS011;11380;50.822;15.790;2022-09-03T19:22:10;55.97;;;50.97;;
22425;SDS011;11380;50.822;15.790;2022-09-03T19:33:08;56.48;;;51.45;;
22425;SDS011;11380;50.822;15.790;2022-09-03T19:49:31;55.67;;;50.60;;
22425;SDS011;11380;50.822;15.790;2022-09-03T19:54:55;55.93;;;51.03;;
22425;SDS011;11380;50.822;15.790;2022-09-03T20:00:20;55.58;;;50.50;;
22425;SDS011;11380;50.822;15.790;2022-09-03T20:05:44;55.77;;;50.87;;
22425;SDS011;11380;50.822;15.790;2022-09-03T20:11:12;55.47;;;50.63;;
22425;SDS011;11380;50.822;15.790;2022-09-03T20:16:30;55.10;;;50.20;;
22425;SDS011;11380;50.822;15.790;2022-09-03T20:27:12;55.83;;;50.87;;
22425;SDS011;11380;50.822;15.790;2022-09-03T20:38:18;55.67;;;50.67;;
22425;SDS011;11380;50.822;15.790;2022-09-03T20:49:09;55.90;;;50.87;;
22425;SDS011;11380;50.822;15.790;2022-09-03T20:54:31;55.90;;;51.00;;
22425;SDS011;11380;50.822;15.790;2022-09-03T21:04:55;54.93;;;50.03;;
22425;SDS011;11380;50.822;15.790;2022-09-03T21:10:30;54.17;;;49.47;;
22425;SDS011;11380;50.822;15.790;2022-09-03T21:15:46;54.47;;;49.77;;
22425;SDS011;11380;50.822;15.790;2022-09-03T21:31:45;53.97;;;49.27;;
22425;SDS011;11380;50.822;15.790;2022-09-03T21:36:46;54.93;;;50.03;;
22425;SDS011;11380;50.822;15.790;2022-09-03T21:42:01;53.90;;;49.20;;
22425;SDS011;11380;50.822;15.790;2022-09-03T21:47:26;54.20;;;49.30;;
22425;SDS011;11380;50.822;15.790;2022-09-03T21:52:38;54.90;;;50.10;;
22425;SDS011;11380;50.822;15.790;2022-09-03T21:58:05;53.73;;;48.93;;
22425;SDS011;11380;50.822;15.790;2022-09-03T22:03:10;53.67;;;49.07;;
22425;SDS011;11380;50.822;15.790;2022-09-03T22:08:21;54.03;;;49.42;;
22425;SDS011;11380;50.822;15.790;2022-09-03T22:13:31;54.27;;;49.30;;
22425;SDS011;11380;50.822;15.790;2022-09-03T22:18:46;54.43;;;49.40;;
22425;SDS011;11380;50.822;15.790;2022-09-03T22:29:13;53.80;;;49.18;;
22425;SDS011;11380;50.822;15.790;2022-09-03T22:34:34;53.83;;;49.23;;
22425;SDS011;11380;50.822;15.790;2022-09-03T22:39:42;54.00;;;49.33;;
22425;SDS011;11380;50.822;15.790;2022-09-03T22:55:32;53.20;;;48.63;;
22425;SDS011;11380;50.822;15.790;2022-09-03T23:00:44;58.33;;;52.93;;
22425;SDS011;11380;50.822;15.790;2022-09-03T23:06:05;57.63;;;52.23;;
22425;SDS011;11380;50.822;15.790;2022-09-03T23:22:09;55.92;;;50.83;;
22425;SDS011;11380;50.822;15.790;2022-09-03T23:27:16;56.27;;;51.27;;
22425;SDS011;11380;50.822;15.790;2022-09-03T23:32:25;56.08;;;51.13;;
22425;SDS011;11380;50.822;15.790;2022-09-03T23:37:55;56.30;;;51.30;;
22425;SDS011;11380;50.822;15.790;2022-09-03T23:59:59;55.87;;;50.87;;
